Time;durP1;ratioP1;P1;durP2;ratioP2;P2;SDS_P1;SDS_P2;PMS_P1;PMS_P2;Temp;Humidity;BMP_temperature;BMP_pressure;BME280_temperature;BME280_humidity;BME280_pressure;Samples;Min_cycle;Max_cycle;Signal;HPM_P1;HPM_P2
2023/12/18 00:01:03;;;;;;;27.92;14.52;;;;;;;0.12;100.00;101317.22;5094002;28;20028;-71
2023/12/18 00:03:29;;;;;;;29.15;16.75;;;;;;;0.20;100.00;101314.22;5111060;28;20108;-72
2023/12/18 00:05:55;;;;;;;27.38;15.15;;;;;;;0.18;100.00;101316.34;5093792;28;20044;-72
2023/12/18 00:08:21;;;;;;;30.08;16.77;;;;;;;0.17;100.00;101302.81;5093729;28;20524;-72
2023/12/18 00:10:46;;;;;;;26.13;15.27;;;;;;;0.19;100.00;101304.28;5075997;28;20024;-72
2023/12/18 00:13:12;;;;;;;28.15;16.00;;;;;;;0.28;100.00;101304.84;5093555;28;20032;-72
2023/12/18 00:15:37;;;;;;;27.02;14.90;;;;;;;0.33;100.00;101293.19;5093885;28;20404;-72
2023/12/18 00:18:03;;;;;;;33.58;16.23;;;;;;;0.34;99.86;101287.44;5107310;28;20080;-72
2023/12/18 00:20:29;;;;;;;24.83;15.55;;;;;;;0.23;100.00;101285.38;5114167;28;20092;-72
2023/12/18 00:22:54;;;;;;;28.63;15.45;;;;;;;0.18;99.71;101275.06;5100078;28;20032;-72
2023/12/18 00:25:20;;;;;;;29.00;16.30;;;;;;;0.20;100.00;101281.19;5108766;28;20027;-72
2023/12/18 00:27:45;;;;;;;29.55;16.40;;;;;;;0.10;100.00;101281.66;5101248;28;20039;-72
2023/12/18 00:30:11;;;;;;;29.40;15.32;;;;;;;0.15;100.00;101271.91;5093738;28;20020;-72
2023/12/18 00:32:37;;;;;;;36.10;19.83;;;;;;;0.24;100.00;101262.31;5095302;28;20516;-72
2023/12/18 00:35:02;;;;;;;32.90;17.15;;;;;;;0.16;100.00;101273.59;5093594;28;20123;-72
2023/12/18 00:37:28;;;;;;;27.83;15.95;;;;;;;-0.03;100.00;101271.59;5074664;28;20024;-72
2023/12/18 00:39:53;;;;;;;35.45;18.15;;;;;;;-0.10;100.00;101280.94;5094531;28;20479;-72
2023/12/18 00:42:19;;;;;;;35.22;16.75;;;;;;;-0.16;100.00;101275.22;5103767;28;20039;-72
2023/12/18 00:44:44;;;;;;;26.67;14.43;;;;;;;-0.15;100.00;101267.84;5093327;28;20066;-72
2023/12/18 00:47:10;;;;;;;32.50;15.80;;;;;;;-0.23;100.00;101268.06;5078809;28;20477;-71
2023/12/18 00:49:35;;;;;;;32.67;16.75;;;;;;;-0.18;100.00;101263.59;5095558;28;20024;-72
2023/12/18 00:52:01;;;;;;;29.13;15.60;;;;;;;-0.22;100.00;101273.38;5104599;28;20488;-71
2023/12/18 00:54:27;;;;;;;23.80;14.07;;;;;;;-0.13;100.00;101264.84;5093221;28;20408;-72
2023/12/18 00:56:52;;;;;;;26.85;14.90;;;;;;;-0.13;100.00;101270.34;5080260;28;20054;-71
2023/12/18 00:59:18;;;;;;;26.77;14.13;;;;;;;-0.12;100.00;101272.03;5113501;28;20026;-71
2023/12/18 01:01:43;;;;;;;27.80;15.60;;;;;;;-0.02;100.00;101273.25;5109344;28;20054;-71
2023/12/18 01:04:09;;;;;;;27.33;15.70;;;;;;;0.04;100.00;101270.69;5074650;28;20541;-71
2023/12/18 01:06:34;;;;;;;28.05;14.95;;;;;;;0.05;100.00;101275.13;5092319;28;20032;-71
2023/12/18 01:09:00;;;;;;;26.55;14.13;;;;;;;0.15;100.00;101274.66;5074640;28;20461;-71
2023/12/18 01:11:25;;;;;;;24.77;14.73;;;;;;;0.09;100.00;101271.72;5093049;28;20484;-71
2023/12/18 01:13:51;;;;;;;24.23;13.30;;;;;;;0.24;100.00;101267.81;5113238;28;20027;-71
2023/12/18 01:16:17;;;;;;;25.70;13.38;;;;;;;0.29;100.00;101259.75;5093068;28;20496;-71
2023/12/18 01:18:42;;;;;;;24.35;13.60;;;;;;;0.24;100.00;101248.53;5111354;28;20035;-70
2023/12/18 01:21:08;;;;;;;28.90;15.52;;;;;;;0.24;99.83;101243.03;5113019;28;20031;-70
2023/12/18 01:23:33;;;;;;;25.83;13.70;;;;;;;0.23;100.00;101246.84;5075004;28;20040;-70
2023/12/18 01:25:59;;;;;;;25.45;14.95;;;;;;;0.30;100.00;101255.91;5092513;28;20050;-70
2023/12/18 01:28:24;;;;;;;25.63;13.82;;;;;;;0.26;100.00;101246.44;5088433;28;20024;-70
2023/12/18 01:30:51;;;;;;;25.25;14.10;;;;;;;0.35;100.00;101239.56;5074276;28;20416;-69
2023/12/18 01:33:16;;;;;;;26.25;13.82;;;;;;;0.54;100.00;101225.88;5107657;28;20038;-69
2023/12/18 01:35:42;;;;;;;20.80;12.07;;;;;;;0.39;100.00;101227.06;5094484;28;20027;-70
2023/12/18 01:38:09;;;;;;;27.02;14.15;;;;;;;0.24;100.00;101227.38;5079441;28;20044;-70
2023/12/18 01:40:35;;;;;;;21.92;12.65;;;;;;;0.21;100.00;101210.47;5094441;28;20034;-69
2023/12/18 01:43:00;;;;;;;25.98;13.60;;;;;;;0.15;100.00;101216.88;5078992;28;20061;-69
2023/12/18 01:45:26;;;;;;;27.45;15.15;;;;;;;0.11;100.00;101217.28;5092118;28;20107;-69
2023/12/18 01:47:53;;;;;;;25.42;13.52;;;;;;;0.03;100.00;101212.06;5075487;28;20031;-70
2023/12/18 01:50:19;;;;;;;29.73;15.15;;;;;;;0.05;100.00;101215.44;5074026;28;20023;-70
2023/12/18 01:52:45;;;;;;;25.23;13.77;;;;;;;-0.01;100.00;101202.56;5073486;28;20024;-70
2023/12/18 01:55:13;;;;;;;25.02;13.32;;;;;;;-0.15;100.00;101199.06;5092051;28;20012;-69
2023/12/18 01:57:40;;;;;;;28.63;13.95;;;;;;;-0.10;100.00;101184.66;5102739;28;20034;-69
2023/12/18 02:00:06;;;;;;;25.70;14.68;;;;;;;-0.11;100.00;101185.72;5110462;28;20066;-70
2023/12/18 02:02:33;;;;;;;25.48;13.82;;;;;;;-0.08;100.00;101174.25;5096597;28;20027;-69
2023/12/18 02:04:59;;;;;;;25.27;13.73;;;;;;;0.12;100.00;101185.97;5093626;28;20050;-70
2023/12/18 02:07:26;;;;;;;27.20;15.43;;;;;;;0.10;100.00;101185.34;5101018;28;20031;-70
2023/12/18 02:09:51;;;;;;;39.95;19.77;;;;;;;0.17;100.00;101176.19;5091603;28;20103;-70
2023/12/18 02:12:17;;;;;;;58.08;23.17;;;;;;;0.31;100.00;101187.97;5091197;28;20154;-69
2023/12/18 02:14:42;;;;;;;37.72;18.70;;;;;;;0.28;100.00;101176.31;5091545;28;20020;-69
2023/12/18 02:17:08;;;;;;;24.77;12.98;;;;;;;0.31;100.00;101186.03;5095038;28;20019;-69
2023/12/18 02:19:34;;;;;;;21.85;11.80;;;;;;;0.25;100.00;101181.44;5111905;28;20016;-70
2023/12/18 02:21:59;;;;;;;23.65;11.50;;;;;;;0.37;99.82;101181.53;5088479;28;20020;-69
2023/12/18 02:24:25;;;;;;;22.40;11.85;;;;;;;0.27;100.00;101182.06;5108014;28;20042;-69
2023/12/18 02:26:51;;;;;;;23.42;11.77;;;;;;;0.30;99.53;101192.59;5106861;28;20425;-69
2023/12/18 02:29:17;;;;;;;22.90;11.43;;;;;;;0.26;99.23;101186.69;5091485;28;20492;-77
2023/12/18 02:31:43;;;;;;;22.15;10.35;;;;;;;0.28;99.28;101178.22;5075600;28;20023;-78
2023/12/18 02:34:09;;;;;;;22.92;12.52;;;;;;;0.26;100.00;101175.69;5093015;28;20027;-78
2023/12/18 02:36:34;;;;;;;20.83;12.10;;;;;;;0.35;99.46;101179.00;5110642;28;23293;-76
2023/12/18 02:39:00;;;;;;;24.30;13.13;;;;;;;0.31;99.85;101175.03;5110758;28;20031;-77
2023/12/18 02:41:25;;;;;;;24.60;12.48;;;;;;;0.02;99.37;101171.88;5091341;28;20092;-78
2023/12/18 02:43:51;;;;;;;21.35;11.88;;;;;;;0.16;100.00;101177.28;5073047;28;20039;-79
2023/12/18 02:46:16;;;;;;;26.35;12.43;;;;;;;-0.10;100.00;101196.47;5090640;28;20028;-79
2023/12/18 02:48:42;;;;;;;23.35;12.00;;;;;;;-0.35;100.00;101189.00;5073156;28;20030;-79
2023/12/18 02:51:07;;;;;;;19.30;11.98;;;;;;;-0.34;100.00;101198.13;5091238;28;20042;-78
2023/12/18 02:53:33;;;;;;;19.35;11.00;;;;;;;-0.35;100.00;101186.25;5072400;28;20024;-77
2023/12/18 02:55:59;;;;;;;23.40;12.07;;;;;;;-0.25;100.00;101177.53;5073521;28;20119;-79
2023/12/18 02:58:24;;;;;;;21.98;11.63;;;;;;;-0.25;100.00;101190.44;5072627;28;20496;-78
2023/12/18 03:00:50;;;;;;;20.55;11.27;;;;;;;-0.31;100.00;101190.25;5072731;28;20020;-78
2023/12/18 03:03:15;;;;;;;20.80;12.10;;;;;;;-0.36;100.00;101189.22;5088419;28;20019;-78
2023/12/18 03:05:41;;;;;;;24.20;12.30;;;;;;;-0.30;100.00;101188.34;5092890;28;20071;-77
2023/12/18 03:08:07;;;;;;;17.55;9.98;;;;;;;-0.33;100.00;101192.38;5077568;28;20511;-78
2023/12/18 03:10:32;;;;;;;23.90;12.10;;;;;;;-0.43;100.00;101187.38;5091349;28;20059;-77
2023/12/18 03:12:58;;;;;;;21.55;12.15;;;;;;;-0.49;100.00;101188.22;5105012;28;20488;-79
2023/12/18 03:15:24;;;;;;;19.42;11.07;;;;;;;-0.41;100.00;101191.78;5115517;28;20414;-79
2023/12/18 03:17:49;;;;;;;20.35;11.82;;;;;;;-0.37;100.00;101193.88;5095799;28;20051;-78
2023/12/18 03:20:15;;;;;;;21.75;12.55;;;;;;;-0.25;100.00;101201.44;5097104;28;20026;-77
2023/12/18 03:22:41;;;;;;;23.48;13.07;;;;;;;-0.14;100.00;101198.00;5113852;28;20027;-77
2023/12/18 03:25:07;;;;;;;18.95;10.77;;;;;;;-0.17;100.00;101187.44;5096524;28;20031;-77
2023/12/18 03:27:33;;;;;;;21.85;10.98;;;;;;;-0.02;100.00;101201.72;5085406;28;20115;-77
2023/12/18 03:29:58;;;;;;;21.33;11.43;;;;;;;0.00;100.00;101193.25;5094861;28;20028;-77
2023/12/18 03:32:24;;;;;;;16.95;9.68;;;;;;;0.15;100.00;101192.09;5094447;28;20028;-77
2023/12/18 03:34:50;;;;;;;21.02;11.13;;;;;;;0.15;100.00;101167.31;5076358;28;20084;-77
2023/12/18 03:37:15;;;;;;;23.77;10.88;;;;;;;0.28;100.00;101170.78;5084471;28;20034;-76
2023/12/18 03:39:41;;;;;;;20.15;11.30;;;;;;;0.32;100.00;101168.44;5094729;28;20020;-77
2023/12/18 03:42:06;;;;;;;20.60;11.68;;;;;;;0.50;100.00;101175.09;5085560;28;20495;-77
2023/12/18 03:44:32;;;;;;;18.30;10.02;;;;;;;0.26;99.70;101174.84;5094449;28;20055;-78
2023/12/18 03:46:57;;;;;;;19.65;10.80;;;;;;;0.18;100.00;101166.88;5096073;28;20032;-78
2023/12/18 03:49:23;;;;;;;23.63;12.10;;;;;;;0.07;100.00;101169.28;5096520;28;20027;-78
2023/12/18 03:51:49;;;;;;;24.65;12.38;;;;;;;-0.14;100.00;101162.22;5110030;28;20036;-78
2023/12/18 03:54:15;;;;;;;34.40;18.27;;;;;;;-0.13;100.00;101176.81;5096544;28;20027;-77
2023/12/18 03:56:41;;;;;;;36.92;20.67;;;;;;;-0.17;100.00;101170.94;5092001;28;20498;-76
2023/12/18 03:59:06;;;;;;;33.80;17.48;;;;;;;0.00;100.00;101165.75;5093250;28;20023;-77
2023/12/18 04:01:36;;;;;;;23.17;13.48;;;;;;;0.04;100.00;101161.47;5093836;28;20028;-78
2023/12/18 04:04:02;;;;;;;25.95;13.30;;;;;;;-0.03;100.00;101144.16;5094131;28;20024;-78
2023/12/18 04:06:28;;;;;;;29.30;15.48;;;;;;;0.11;100.00;101145.75;5094286;28;20385;-77
2023/12/18 04:08:54;;;;;;;32.13;18.05;;;;;;;0.02;100.00;101160.84;5096278;28;20031;-77
2023/12/18 04:11:21;;;;;;;39.80;21.02;;;;;;;-0.12;100.00;101153.75;5113045;28;20063;-77
2023/12/18 04:13:48;;;;;;;23.50;14.45;;;;;;;-0.27;100.00;101157.66;5097618;27;20038;-78
2023/12/18 04:16:14;;;;;;;22.75;12.52;;;;;;;-0.22;100.00;101159.75;5086874;27;20035;-79
2023/12/18 04:18:39;;;;;;;27.20;12.50;;;;;;;-0.27;100.00;101159.56;5094327;28;20034;-78
2023/12/18 04:21:05;;;;;;;20.48;11.40;;;;;;;-0.25;100.00;101169.28;5099326;28;20466;-77
2023/12/18 04:23:31;;;;;;;23.45;14.00;;;;;;;-0.24;100.00;101172.88;5094131;28;20027;-78
2023/12/18 04:25:56;;;;;;;22.33;12.55;;;;;;;-0.22;100.00;101165.25;5075574;28;20098;-79
2023/12/18 04:28:22;;;;;;;23.15;13.13;;;;;;;-0.19;100.00;101168.41;5075410;28;20032;-74
2023/12/18 04:30:47;;;;;;;23.20;11.45;;;;;;;-0.21;100.00;101170.53;5094767;28;20035;-78
2023/12/18 04:33:13;;;;;;;20.60;11.23;;;;;;;-0.47;100.00;101163.28;5079041;28;20027;-77
2023/12/18 04:35:39;;;;;;;24.38;11.23;;;;;;;-0.52;100.00;101163.09;5083458;28;20024;-78
2023/12/18 04:38:04;;;;;;;18.60;10.90;;;;;;;-0.59;100.00;101165.88;5091602;28;20127;-78
2023/12/18 04:40:30;;;;;;;25.00;13.70;;;;;;;-0.59;100.00;101163.97;5092166;28;20034;-78
2023/12/18 04:42:55;;;;;;;22.15;12.05;;;;;;;-0.39;100.00;101167.66;5093370;28;20137;-78
2023/12/18 04:45:21;;;;;;;24.15;13.07;;;;;;;-0.27;100.00;101170.56;5100218;27;20027;-77
2023/12/18 04:47:46;;;;;;;20.77;11.75;;;;;;;-0.15;100.00;101166.88;5111015;28;20080;-77
2023/12/18 04:50:13;;;;;;;24.73;13.10;;;;;;;-0.04;100.00;101162.59;5113246;28;20027;-77
2023/12/18 04:52:38;;;;;;;22.27;11.43;;;;;;;-0.05;100.00;101151.81;5083907;28;20177;-78
2023/12/18 04:55:05;;;;;;;23.02;11.85;;;;;;;-0.05;100.00;101160.06;5077345;28;20110;-78
2023/12/18 04:57:31;;;;;;;20.77;11.32;;;;;;;0.05;100.00;101162.31;5084345;28;20124;-77
2023/12/18 04:59:57;;;;;;;21.63;11.13;;;;;;;0.08;100.00;101168.22;5074957;28;20016;-77
2023/12/18 05:02:22;;;;;;;17.88;9.63;;;;;;;0.08;100.00;101162.69;5076387;28;20134;-78
2023/12/18 05:04:48;;;;;;;17.55;10.13;;;;;;;0.17;100.00;101159.69;5094469;28;20043;-72
2023/12/18 05:07:14;;;;;;;19.70;11.32;;;;;;;0.23;100.00;101167.88;5103723;28;20092;-77
2023/12/18 05:09:39;;;;;;;21.02;11.35;;;;;;;0.20;100.00;101159.22;5074770;28;20031;-76
2023/12/18 05:12:05;;;;;;;25.90;12.95;;;;;;;0.23;100.00;101158.78;5098892;28;20020;-77
2023/12/18 05:14:31;;;;;;;20.73;11.85;;;;;;;0.25;100.00;101165.75;5112582;28;20023;-76
2023/12/18 05:16:56;;;;;;;26.45;13.25;;;;;;;0.24;100.00;101161.31;5107881;28;20409;-78
2023/12/18 05:19:23;;;;;;;22.85;12.70;;;;;;;0.35;100.00;101153.41;5094754;28;20034;-77
2023/12/18 05:21:49;;;;;;;21.65;11.77;;;;;;;0.43;100.00;101144.00;5084071;28;20020;-77
2023/12/18 05:24:14;;;;;;;20.70;11.00;;;;;;;0.43;100.00;101146.75;5092307;28;20023;-77
2023/12/18 05:26:40;;;;;;;22.08;11.73;;;;;;;0.52;100.00;101148.97;5089974;28;20703;-77
2023/12/18 05:29:05;;;;;;;21.60;11.38;;;;;;;0.54;100.00;101143.25;5088745;28;20416;-76
2023/12/18 05:31:31;;;;;;;24.35;11.80;;;;;;;0.59;100.00;101134.31;5078647;28;20020;-77
2023/12/18 05:33:57;;;;;;;19.25;10.48;;;;;;;0.72;100.00;101141.59;5092821;28;20055;-76
2023/12/18 05:36:23;;;;;;;23.70;11.00;;;;;;;0.83;99.77;101149.09;5111015;28;20698;-74
2023/12/18 05:38:48;;;;;;;28.52;13.05;;;;;;;0.86;99.53;101145.91;5110364;28;20028;-75
2023/12/18 05:41:14;;;;;;;27.88;14.52;;;;;;;0.76;99.43;101131.81;5082846;28;20031;-77
2023/12/18 05:43:39;;;;;;;42.55;17.90;;;;;;;0.83;99.25;101140.84;5074187;28;20031;-77
2023/12/18 05:46:05;;;;;;;28.77;13.77;;;;;;;0.76;98.95;101142.84;5106017;28;20492;-77
2023/12/18 05:48:30;;;;;;;30.30;14.35;;;;;;;0.77;99.06;101144.50;5093125;28;20047;-77
2023/12/18 05:50:56;;;;;;;28.05;15.63;;;;;;;0.78;98.81;101135.19;5111343;28;20400;-74
2023/12/18 05:53:21;;;;;;;21.95;12.82;;;;;;;0.80;98.84;101130.28;5087172;28;20024;-74
2023/12/18 05:55:47;;;;;;;19.67;11.60;;;;;;;0.73;99.18;101126.78;5107545;28;20419;-74
2023/12/18 05:58:13;;;;;;;17.63;10.20;;;;;;;0.87;97.67;101124.69;5095267;28;20027;-74
2023/12/18 06:00:39;;;;;;;19.60;10.57;;;;;;;1.01;97.50;101125.38;5073278;28;20032;-72
2023/12/18 06:03:04;;;;;;;24.45;12.00;;;;;;;0.88;98.13;101105.19;5072938;28;20024;-78
2023/12/18 06:05:30;;;;;;;92.43;63.33;;;;;;;0.79;98.83;101118.44;5091925;28;20482;-80
2023/12/18 06:07:55;;;;;;;30.40;15.15;;;;;;;0.77;99.24;101126.06;5103073;28;20177;-74
2023/12/18 06:10:21;;;;;;;30.73;15.40;;;;;;;0.78;99.78;101124.16;5112185;28;20560;-77
2023/12/18 06:12:46;;;;;;;22.52;13.55;;;;;;;0.75;99.98;101106.16;5087327;28;20023;-76
2023/12/18 06:15:12;;;;;;;33.90;16.63;;;;;;;0.91;99.60;101115.75;5075598;28;20020;-71
2023/12/18 06:17:37;;;;;;;21.75;12.02;;;;;;;0.89;99.78;101119.78;5102060;28;20019;-73
2023/12/18 06:20:05;;;;;;;20.55;12.48;;;;;;;0.87;100.00;101131.06;5112086;28;20372;-74
2023/12/18 06:22:31;;;;;;;23.33;11.93;;;;;;;0.95;100.00;101125.22;5107522;28;20023;-73
2023/12/18 06:24:57;;;;;;;21.10;13.57;;;;;;;0.86;99.62;101112.00;5085279;28;20181;-74
2023/12/18 06:27:22;;;;;;;25.00;13.85;;;;;;;0.95;100.00;101122.47;5101187;28;20111;-74
2023/12/18 06:29:48;;;;;;;26.10;13.77;;;;;;;1.11;99.21;101115.50;5098520;28;20039;-72
2023/12/18 06:32:14;;;;;;;27.77;13.57;;;;;;;1.19;99.10;101108.00;5094735;28;20031;-74
2023/12/18 06:34:41;;;;;;;18.90;11.52;;;;;;;1.34;98.61;101113.94;5100567;28;20027;-74
2023/12/18 06:37:07;;;;;;;21.90;12.68;;;;;;;1.51;97.19;101121.56;5079737;28;20059;-73
2023/12/18 06:39:32;;;;;;;23.95;12.90;;;;;;;1.58;96.63;101118.72;5097098;28;20063;-73
2023/12/18 06:41:58;;;;;;;20.40;11.77;;;;;;;1.64;95.21;101120.53;5092306;28;20891;-72
2023/12/18 06:44:24;;;;;;;17.40;9.45;;;;;;;1.89;94.79;101108.47;5077285;28;20024;-73
2023/12/18 06:46:49;;;;;;;16.10;10.07;;;;;;;1.78;94.41;101099.91;5099375;28;20028;-75
2023/12/18 06:49:15;;;;;;;17.33;10.50;;;;;;;1.78;94.01;101090.81;5103430;27;20036;-72
2023/12/18 06:51:40;;;;;;;20.25;12.00;;;;;;;1.81;93.64;101093.97;5077053;28;20472;-73
2023/12/18 06:54:06;;;;;;;24.80;13.50;;;;;;;1.88;94.16;101095.75;5073969;28;20031;-73
2023/12/18 06:56:32;;;;;;;28.33;15.02;;;;;;;1.98;93.68;101107.06;5091866;28;20029;-73
2023/12/18 06:58:58;;;;;;;24.75;14.52;;;;;;;2.07;93.62;101105.63;5096551;28;20475;-73
2023/12/18 07:01:23;;;;;;;39.95;17.02;;;;;;;2.13;93.66;101097.47;5101677;28;20028;-73
2023/12/18 07:03:49;;;;;;;22.80;12.63;;;;;;;2.31;94.36;101088.22;5081949;28;20035;-70
2023/12/18 07:06:17;;;;;;;29.98;15.85;;;;;;;2.51;93.18;101093.38;5102394;28;20031;-70
2023/12/18 07:08:43;;;;;;;27.75;13.85;;;;;;;2.66;91.40;101101.19;5086510;28;20039;-71
2023/12/18 07:11:08;;;;;;;22.15;11.82;;;;;;;2.87;90.32;101119.06;5073381;28;20123;-75
2023/12/18 07:13:34;;;;;;;24.27;11.80;;;;;;;2.79;89.41;101114.75;5094647;28;20419;-75
2023/12/18 07:15:59;;;;;;;23.52;14.20;;;;;;;2.73;90.10;101120.41;5100365;28;20030;-73
2023/12/18 07:18:25;;;;;;;25.58;13.10;;;;;;;2.75;91.34;101121.00;5104146;28;20028;-75
2023/12/18 07:20:50;;;;;;;26.10;14.95;;;;;;;2.85;91.57;101104.66;5098737;28;20032;-74
2023/12/18 07:23:16;;;;;;;26.08;13.48;;;;;;;2.92;90.82;101112.81;5106759;28;20051;-72
2023/12/18 07:25:42;;;;;;;24.75;13.70;;;;;;;3.01;90.80;101122.41;5103527;28;20027;-72
2023/12/18 07:28:10;;;;;;;21.73;12.82;;;;;;;2.98;90.37;101113.75;5104710;28;20049;-73
2023/12/18 07:30:39;;;;;;;25.08;13.52;;;;;;;2.73;91.46;101112.13;5106552;28;20023;-74
2023/12/18 07:33:05;;;;;;;21.90;13.07;;;;;;;2.81;91.98;101133.88;5085560;28;20465;-73
2023/12/18 07:35:31;;;;;;;25.00;13.80;;;;;;;2.74;92.70;101128.47;5111424;28;20024;-74
2023/12/18 07:37:56;;;;;;;30.90;16.40;;;;;;;2.70;93.56;101135.53;5107528;28;20465;-73
2023/12/18 07:40:22;;;;;;;30.08;14.10;;;;;;;2.74;93.54;101138.66;5084491;28;20044;-72
2023/12/18 07:42:47;;;;;;;41.50;23.02;;;;;;;2.47;94.56;101136.41;5080002;28;20023;-72
2023/12/18 07:45:13;;;;;;;30.75;19.15;;;;;;;2.26;95.57;101124.84;5098535;28;20072;-72
2023/12/18 07:47:40;;;;;;;39.40;24.50;;;;;;;2.33;96.24;101127.50;5100322;28;20588;-73
2023/12/18 07:50:07;;;;;;;23.92;14.02;;;;;;;2.55;93.64;101122.22;5084289;28;20028;-67
2023/12/18 07:52:32;;;;;;;24.77;14.73;;;;;;;2.97;90.73;101137.81;5078345;28;20028;-70
2023/12/18 07:54:58;;;;;;;39.67;18.75;;;;;;;3.29;89.67;101136.53;5082491;28;20399;-68
2023/12/18 07:57:23;;;;;;;25.92;12.00;;;;;;;3.46;90.16;101139.38;5107807;28;20064;-68
2023/12/18 07:59:49;;;;;;;22.27;12.65;;;;;;;3.51;90.81;101145.84;5104222;28;20030;-69
2023/12/18 08:02:14;;;;;;;24.10;12.88;;;;;;;3.80;90.60;101147.72;5104493;27;20462;-68
2023/12/18 08:04:40;;;;;;;51.05;25.83;;;;;;;4.03;88.91;101140.38;5109247;28;20123;-69
2023/12/18 08:07:06;;;;;;;26.65;14.38;;;;;;;4.20;86.67;101144.03;5106551;28;20054;-68
2023/12/18 08:09:31;;;;;;;60.85;34.67;;;;;;;4.50;86.29;101137.28;5101692;27;20084;-68
2023/12/18 08:11:57;;;;;;;58.30;31.92;;;;;;;4.68;85.92;101127.03;5104554;27;20444;-69
2023/12/18 08:14:23;;;;;;;38.92;21.65;;;;;;;4.83;84.36;101131.97;5113075;27;20063;-67
2023/12/18 08:16:49;;;;;;;50.08;25.38;;;;;;;5.05;83.46;101128.34;5108838;28;20027;-69
2023/12/18 08:19:15;;;;;;;68.45;36.63;;;;;;;5.21;82.03;101137.72;5113162;28;20427;-72
2023/12/18 08:21:41;;;;;;;32.53;18.80;;;;;;;5.24;81.98;101139.97;5112885;28;20019;-71
2023/12/18 08:24:06;;;;;;;49.75;26.90;;;;;;;5.40;81.22;101137.41;5113378;28;20028;-72
2023/12/18 08:26:32;;;;;;;32.22;19.15;;;;;;;5.52;79.30;101129.78;5085265;28;20078;-71
2023/12/18 08:29:00;;;;;;;21.02;12.23;;;;;;;5.58;78.89;101136.22;5088007;28;20177;-71
2023/12/18 08:31:26;;;;;;;19.20;12.35;;;;;;;5.52;80.33;101131.69;5079230;28;20055;-71
2023/12/18 08:33:52;;;;;;;21.17;14.68;;;;;;;5.51;79.91;101128.09;5108476;27;20066;-72
2023/12/18 08:36:18;;;;;;;18.33;11.23;;;;;;;5.52;78.90;101115.91;5107595;27;20035;-72
2023/12/18 08:38:43;;;;;;;17.95;10.82;;;;;;;5.52;79.08;101109.50;5111737;28;20054;-72
2023/12/18 08:41:09;;;;;;;17.77;10.07;;;;;;;5.59;78.84;101107.34;5086189;28;20562;-72
2023/12/18 08:43:35;;;;;;;14.35;9.65;;;;;;;5.54;80.59;101099.81;5091328;28;20024;-71
2023/12/18 08:46:00;;;;;;;30.10;15.20;;;;;;;5.73;80.65;101099.44;5112901;28;20035;-72
2023/12/18 08:48:26;;;;;;;27.60;12.05;;;;;;;5.81;81.07;101095.38;5091812;28;20027;-71
2023/12/18 08:50:51;;;;;;;45.75;21.73;;;;;;;5.94;80.65;101085.75;5110222;28;20110;-73
2023/12/18 08:53:17;;;;;;;21.10;11.88;;;;;;;5.60;80.46;101089.59;5092240;28;20027;-72
2023/12/18 08:55:42;;;;;;;18.60;11.00;;;;;;;5.58;80.73;101070.41;5097392;28;21045;-71
2023/12/18 08:58:09;;;;;;;19.92;9.82;;;;;;;5.61;80.54;101075.47;5105815;28;20031;-75
2023/12/18 09:00:37;;;;;;;19.25;10.55;;;;;;;5.63;81.52;101069.63;5104237;27;20027;-73
2023/12/18 09:03:04;;;;;;;22.50;13.05;;;;;;;5.79;82.00;101067.00;5090048;27;20381;-71
2023/12/18 09:05:31;;;;;;;17.75;11.25;;;;;;;5.83;81.43;101065.38;5108193;28;20054;-71
2023/12/18 09:07:57;;;;;;;20.02;11.00;;;;;;;5.62;81.63;101059.63;5109205;28;20127;-71
2023/12/18 09:10:24;;;;;;;20.55;12.75;;;;;;;5.67;82.06;101050.53;5097997;28;20110;-71
2023/12/18 09:12:52;;;;;;;19.38;12.40;;;;;;;5.62;83.18;101048.53;5089718;28;20047;-73
2023/12/18 09:15:18;;;;;;;27.15;15.30;;;;;;;5.76;83.77;101043.41;5094687;28;20401;-71
2023/12/18 09:17:43;;;;;;;23.27;13.60;;;;;;;5.85;83.79;101033.47;5077802;28;20081;-72
2023/12/18 09:20:12;;;;;;;18.98;11.23;;;;;;;5.69;83.18;101018.63;5111355;28;20016;-72
2023/12/18 09:22:38;;;;;;;18.15;9.95;;;;;;;5.73;83.04;101019.75;5106258;28;20024;-72
2023/12/18 09:25:04;;;;;;;13.43;8.15;;;;;;;5.64;81.44;101014.97;5090414;28;20030;-72
2023/12/18 09:27:30;;;;;;;14.93;9.70;;;;;;;5.47;83.71;101013.13;5099453;28;20019;-72
2023/12/18 09:29:55;;;;;;;13.98;8.90;;;;;;;5.67;83.34;101006.94;5082774;28;20028;-68
2023/12/18 09:32:21;;;;;;;13.52;9.23;;;;;;;5.85;83.33;101013.19;5106597;28;20539;-69
2023/12/18 09:34:47;;;;;;;18.23;8.02;;;;;;;5.66;83.66;101005.25;5095071;28;20024;-68
2023/12/18 09:37:13;;;;;;;14.75;7.70;;;;;;;5.90;84.31;101010.44;5106656;28;20028;-68
2023/12/18 09:39:42;;;;;;;17.02;8.90;;;;;;;5.72;83.42;100998.66;5101880;28;20103;-68
2023/12/18 09:42:10;;;;;;;14.82;8.77;;;;;;;5.77;85.93;101000.63;5099328;28;20480;-68
2023/12/18 09:44:36;;;;;;;19.33;10.82;;;;;;;5.75;87.69;101002.84;5101963;28;20025;-68
2023/12/18 09:47:03;;;;;;;19.15;11.48;;;;;;;6.03;88.56;101004.50;5095183;28;20073;-67
2023/12/18 09:49:29;;;;;;;19.35;11.45;;;;;;;6.09;87.83;100999.78;5104764;28;20035;-68
2023/12/18 09:52:03;;;;;;;14.93;8.88;;;;;;;6.38;86.42;100995.78;5102240;28;20023;-67
2023/12/18 09:54:29;;;;;;;17.25;9.40;;;;;;;6.55;85.25;100995.59;5108831;28;20592;-68
2023/12/18 09:56:56;;;;;;;19.58;10.95;;;;;;;6.87;84.56;100989.88;5080728;28;20027;-67
2023/12/18 09:59:22;;;;;;;12.07;7.63;;;;;;;6.99;81.64;100989.66;5088168;28;20028;-68
2023/12/18 10:01:48;;;;;;;13.70;9.70;;;;;;;7.34;81.07;100987.22;5092557;28;20487;-69
2023/12/18 10:04:13;;;;;;;13.05;6.53;;;;;;;7.56;79.03;100972.22;5093037;28;20512;-69
2023/12/18 10:06:39;;;;;;;15.50;6.78;;;;;;;7.63;79.39;100972.78;5111270;28;20233;-69
2023/12/18 10:09:15;;;;;;;12.13;6.05;;;;;;;7.79;79.94;100958.84;5107318;28;20066;-70
2023/12/18 10:11:41;;;;;;;12.30;7.47;;;;;;;7.80;78.77;100963.28;5112070;28;20492;-69
2023/12/18 10:14:07;;;;;;;24.45;9.07;;;;;;;7.71;78.21;100963.84;5088026;28;20189;-68
2023/12/18 10:16:33;;;;;;;13.15;8.32;;;;;;;7.61;78.21;100952.75;5098128;28;20103;-69
2023/12/18 10:18:58;;;;;;;17.58;9.73;;;;;;;7.68;80.52;100952.44;5110380;28;20038;-70
2023/12/18 10:21:25;;;;;;;11.45;7.55;;;;;;;7.81;79.30;100951.03;5111033;28;20020;-70
2023/12/18 10:23:54;;;;;;;11.85;7.22;;;;;;;7.83;79.02;100946.88;5083001;28;20170;-69
2023/12/18 10:26:20;;;;;;;15.48;8.00;;;;;;;7.84;79.84;100944.91;5107503;28;20095;-70
2023/12/18 10:28:48;;;;;;;10.20;6.18;;;;;;;7.89;78.30;100944.91;5105588;28;20024;-69
2023/12/18 10:31:14;;;;;;;10.80;7.60;;;;;;;7.97;77.90;100933.19;5087446;28;20020;-69
2023/12/18 10:33:40;;;;;;;11.20;6.47;;;;;;;7.93;79.75;100932.06;5099868;28;20020;-71
2023/12/18 10:36:08;;;;;;;11.35;7.15;;;;;;;7.94;80.32;100921.78;5081123;28;20027;-70
2023/12/18 10:38:36;;;;;;;11.68;7.40;;;;;;;8.20;80.13;100921.72;5086854;28;20488;-71
2023/12/18 10:41:04;;;;;;;10.65;6.80;;;;;;;8.32;79.97;100913.00;5085372;28;20100;-69
2023/12/18 10:43:31;;;;;;;13.50;8.23;;;;;;;8.37;78.24;100901.84;5106226;28;20016;-71
2023/12/18 10:45:59;;;;;;;12.07;6.55;;;;;;;8.43;78.06;100898.75;5091678;28;20028;-70
2023/12/18 10:48:25;;;;;;;11.68;7.43;;;;;;;8.47;78.60;100892.59;5087539;28;20015;-71
2023/12/18 10:50:57;;;;;;;10.73;7.10;;;;;;;8.36;78.41;100880.66;5103211;28;20710;-68
2023/12/18 10:53:24;;;;;;;12.80;7.15;;;;;;;8.47;78.27;100885.09;5080967;28;20031;-70
2023/12/18 10:55:52;;;;;;;10.00;6.53;;;;;;;8.50;78.05;100878.09;5107972;28;20023;-70
2023/12/18 10:58:18;;;;;;;10.95;6.60;;;;;;;8.57;78.73;100870.28;5111720;28;20380;-72
2023/12/18 11:00:44;;;;;;;11.48;7.50;;;;;;;8.69;77.45;100869.94;5092105;28;20559;-71
2023/12/18 11:03:10;;;;;;;11.52;6.63;;;;;;;8.68;77.79;100868.25;5105316;28;20092;-71
2023/12/18 11:05:40;;;;;;;11.70;7.05;;;;;;;8.62;78.33;100864.66;5092342;28;20044;-74